createdAt,value
2018-07-17T00:00:52.093Z,16.20
2018-07-17T00:03:25.533Z,16.20
2018-07-17T00:05:58.912Z,16.10
2018-07-17T00:08:32.354Z,16.10
2018-07-17T00:11:05.834Z,16.00
2018-07-17T00:13:39.288Z,16.00
2018-07-17T00:16:12.744Z,15.90
2018-07-17T00:18:46.152Z,15.90
2018-07-17T00:21:19.547Z,15.80
2018-07-17T00:23:52.959Z,15.70
2018-07-17T00:26:26.430Z,15.80
2018-07-17T00:28:59.810Z,15.80
2018-07-17T00:31:33.206Z,15.80
2018-07-17T00:34:06.962Z,15.80
2018-07-17T00:36:40.376Z,15.80
2018-07-17T00:39:13.804Z,15.80
2018-07-17T00:41:47.232Z,15.70
2018-07-17T00:44:20.986Z,15.70
2018-07-17T00:46:54.419Z,15.70
2018-07-17T00:49:27.857Z,15.70
2018-07-17T00:52:01.249Z,15.70
2018-07-17T00:54:34.712Z,15.60
2018-07-17T00:57:08.290Z,15.60
2018-07-17T00:59:41.754Z,15.60
2018-07-17T01:02:20.513Z,15.60
2018-07-17T01:04:59.316Z,15.60
2018-07-17T01:07:38.089Z,15.60
2018-07-17T01:10:16.655Z,15.70
2018-07-17T01:12:49.287Z,15.60
2018-07-17T01:15:26.584Z,15.50
2018-07-17T01:18:00.039Z,15.50
2018-07-17T01:20:33.480Z,15.40
2018-07-17T01:23:06.883Z,15.40
2018-07-17T01:25:40.289Z,15.40
2018-07-17T01:28:15.807Z,15.40
2018-07-17T01:30:49.205Z,15.30
2018-07-17T01:33:22.644Z,15.30
2018-07-17T01:35:56.049Z,15.40
2018-07-17T01:38:29.576Z,15.40
2018-07-17T01:41:03.082Z,15.40
2018-07-17T01:43:36.496Z,15.30
2018-07-17T01:46:09.900Z,15.30
2018-07-17T01:48:43.336Z,15.30
2018-07-17T01:51:16.731Z,15.30
2018-07-17T01:53:50.144Z,15.20
2018-07-17T01:56:23.551Z,15.20
2018-07-17T01:58:56.956Z,15.20
2018-07-17T02:01:30.436Z,15.10
2018-07-17T02:04:04.065Z,15.10
2018-07-17T02:06:37.493Z,15.10
2018-07-17T02:09:10.942Z,15.10
2018-07-17T02:11:44.341Z,15.10
2018-07-17T02:14:17.763Z,15.10
2018-07-17T02:16:51.202Z,15.10
2018-07-17T02:19:24.576Z,15.10
2018-07-17T02:21:57.976Z,15.10
2018-07-17T02:24:31.364Z,15.10
2018-07-17T02:27:05.010Z,15.10
2018-07-17T02:29:38.440Z,15.10
2018-07-17T02:32:18.278Z,15.10
2018-07-17T02:34:51.670Z,15.00
2018-07-17T02:37:25.089Z,15.00
2018-07-17T02:39:58.484Z,15.00
2018-07-17T02:42:31.916Z,15.00
2018-07-17T02:45:05.501Z,15.00
2018-07-17T02:47:38.910Z,15.00
2018-07-17T02:50:12.311Z,15.00
2018-07-17T02:52:45.729Z,15.00
2018-07-17T02:55:19.144Z,14.90
2018-07-17T02:57:52.596Z,14.90
2018-07-17T03:00:26.035Z,14.90
2018-07-17T03:02:59.465Z,14.80
2018-07-17T03:05:32.877Z,14.80
2018-07-17T03:08:12.763Z,14.80
2018-07-17T03:10:46.185Z,14.80
2018-07-17T03:13:19.651Z,14.70
2018-07-17T03:18:26.125Z,14.60
2018-07-17T03:20:59.519Z,14.60
2018-07-17T03:23:32.984Z,14.60
2018-07-17T03:26:06.378Z,14.70
2018-07-17T03:28:39.785Z,14.60
2018-07-17T03:31:13.207Z,14.60
2018-07-17T03:33:46.638Z,14.60
2018-07-17T03:36:20.258Z,14.60
2018-07-17T03:38:53.634Z,14.60
2018-07-17T03:41:27.030Z,14.50
2018-07-17T03:46:33.574Z,14.60
2018-07-17T03:49:06.996Z,14.60
2018-07-17T03:51:40.476Z,14.70
2018-07-17T03:54:13.933Z,14.60
2018-07-17T03:56:47.399Z,14.70
2018-07-17T03:59:20.849Z,14.70
2018-07-17T04:01:54.267Z,14.70
2018-07-17T04:04:27.752Z,14.70
2018-07-17T04:07:01.142Z,14.60
2018-07-17T04:09:34.577Z,14.60
2018-07-17T04:12:08.293Z,14.50
2018-07-17T04:14:41.795Z,14.60
2018-07-17T04:17:15.226Z,14.60
2018-07-17T04:19:48.728Z,14.60
2018-07-17T04:22:22.168Z,14.60
2018-07-17T04:24:55.600Z,14.60
2018-07-17T04:27:29.057Z,14.70
2018-07-17T04:30:02.736Z,14.60
2018-07-17T04:32:36.162Z,14.70
2018-07-17T04:35:09.856Z,14.80
2018-07-17T04:37:43.261Z,14.80
2018-07-17T04:40:16.699Z,14.80
2018-07-17T04:42:50.118Z,14.80
2018-07-17T04:45:23.605Z,14.90
2018-07-17T04:47:57.049Z,15.00
2018-07-17T04:50:30.473Z,15.20
2018-07-17T04:53:03.873Z,15.30
2018-07-17T04:55:37.292Z,15.50
2018-07-17T04:58:10.717Z,15.60
2018-07-17T05:00:44.156Z,15.60
2018-07-17T05:03:17.560Z,15.90
2018-07-17T05:05:50.989Z,15.90
2018-07-17T05:08:24.399Z,16.40
2018-07-17T05:10:57.846Z,17.20
2018-07-17T05:13:31.243Z,18.20
2018-07-17T05:16:04.862Z,19.20
2018-07-17T05:18:38.243Z,19.70
2018-07-17T05:21:11.666Z,20.40
2018-07-17T05:23:51.484Z,20.80
2018-07-17T05:26:24.914Z,21.10
2018-07-17T05:28:58.388Z,21.20
2018-07-17T05:31:31.767Z,21.50
2018-07-17T05:34:05.155Z,22.60
2018-07-17T05:36:38.588Z,22.60
2018-07-17T05:39:12.006Z,22.80
2018-07-17T05:41:45.461Z,23.50
2018-07-17T05:44:18.866Z,23.70
2018-07-17T05:46:52.351Z,23.90
2018-07-17T05:49:25.744Z,23.90
2018-07-17T05:51:59.252Z,24.10
2018-07-17T05:54:32.592Z,24.10
2018-07-17T05:57:06.096Z,24.20
2018-07-17T05:59:39.505Z,24.50
2018-07-17T06:02:13.082Z,24.70
2018-07-17T06:04:46.522Z,25.10
2018-07-17T06:07:19.925Z,25.30
2018-07-17T06:09:53.404Z,25.70
2018-07-17T06:12:26.812Z,25.70
2018-07-17T06:15:00.449Z,25.60
2018-07-17T06:17:33.876Z,26.30
2018-07-17T06:20:07.781Z,26.50
2018-07-17T06:22:41.221Z,26.50
2018-07-17T06:25:14.693Z,26.60
2018-07-17T06:27:48.082Z,27.30
2018-07-17T06:30:21.656Z,27.50
2018-07-17T06:32:55.182Z,27.80
2018-07-17T06:35:28.612Z,28.20
2018-07-17T06:38:02.041Z,28.40
2018-07-17T06:40:35.495Z,28.80
2018-07-17T06:43:08.889Z,29.40
2018-07-17T06:45:42.372Z,29.60
2018-07-17T06:48:15.763Z,29.30
2018-07-17T06:50:49.243Z,29.20
2018-07-17T06:53:22.686Z,29.40
2018-07-17T06:55:56.153Z,29.70
2018-07-17T06:58:29.547Z,30.40
2018-07-17T07:01:09.412Z,30.60
2018-07-17T07:03:42.844Z,30.60
2018-07-17T07:06:16.576Z,31.10
2018-07-17T07:08:49.970Z,31.50
2018-07-17T07:11:23.544Z,31.60
2018-07-17T07:13:56.792Z,31.60
2018-07-17T07:16:30.245Z,31.60
2018-07-17T07:19:03.632Z,31.90
2018-07-17T07:21:37.065Z,32.30
2018-07-17T07:24:10.506Z,31.70
2018-07-17T07:26:43.956Z,31.40
2018-07-17T07:29:17.364Z,31.90
2018-07-17T07:31:50.780Z,32.20
2018-07-17T07:34:24.203Z,31.50
2018-07-17T07:36:57.617Z,32.00
2018-07-17T07:39:31.065Z,32.20
2018-07-17T07:42:04.524Z,32.70
2018-07-17T07:44:38.020Z,32.90
2018-07-17T07:47:11.573Z,33.20
2018-07-17T07:49:45.013Z,33.00
2018-07-17T07:52:18.434Z,32.70
2018-07-17T07:54:51.845Z,33.30
2018-07-17T07:57:25.264Z,33.50
2018-07-17T07:59:58.720Z,33.50
2018-07-17T08:02:32.149Z,33.60
2018-07-17T08:05:06.025Z,33.30
2018-07-17T08:07:39.487Z,33.50
2018-07-17T08:10:12.977Z,33.40
2018-07-17T08:12:46.401Z,33.80
2018-07-17T08:15:19.865Z,33.40
2018-07-17T08:17:53.285Z,33.90
2018-07-17T08:20:26.712Z,33.70
2018-07-17T08:23:00.248Z,33.90
2018-07-17T08:25:33.653Z,33.60
2018-07-17T08:28:09.711Z,33.70
2018-07-17T08:30:43.150Z,33.50
2018-07-17T08:33:16.589Z,33.50
2018-07-17T08:35:50.201Z,33.40
2018-07-17T08:38:23.589Z,33.40
2018-07-17T08:40:57.033Z,33.20
2018-07-17T08:43:30.631Z,32.80
2018-07-17T08:46:03.928Z,32.50
2018-07-17T08:48:37.352Z,32.70
2018-07-17T08:51:10.805Z,32.80
2018-07-17T08:53:44.321Z,32.90
2018-07-17T08:56:17.792Z,32.70
2018-07-17T08:58:51.227Z,32.60
2018-07-17T09:01:24.640Z,32.40
2018-07-17T09:03:58.059Z,32.20
2018-07-17T09:06:31.471Z,32.10
2018-07-17T09:09:06.045Z,31.80
2018-07-17T09:11:39.557Z,31.60
2018-07-17T09:14:12.951Z,31.60
2018-07-17T09:16:46.404Z,31.20
2018-07-17T09:19:19.843Z,31.20
2018-07-17T09:21:53.295Z,31.30
2018-07-17T09:24:26.725Z,31.50
2018-07-17T09:27:00.185Z,31.40
2018-07-17T09:29:33.667Z,31.60
2018-07-17T09:32:07.136Z,31.70
2018-07-17T09:34:40.533Z,31.30
2018-07-17T09:37:20.915Z,31.40
2018-07-17T09:39:54.402Z,31.60
2018-07-17T09:42:27.845Z,31.60
2018-07-17T09:45:01.285Z,31.40
2018-07-17T09:47:34.704Z,31.20
2018-07-17T09:50:08.130Z,31.30
2018-07-17T09:52:41.517Z,31.30
2018-07-17T09:55:14.945Z,31.30
2018-07-17T09:57:48.384Z,31.10
2018-07-17T10:00:27.113Z,31.10
2018-07-17T10:03:00.524Z,31.20
2018-07-17T10:05:33.959Z,31.30
2018-07-17T10:08:07.391Z,31.30
2018-07-17T10:10:40.830Z,31.10
2018-07-17T10:13:14.399Z,31.10
2018-07-17T10:15:47.963Z,31.00
2018-07-17T10:18:21.437Z,30.80
2018-07-17T10:20:54.856Z,30.60
2018-07-17T10:23:28.292Z,30.70
2018-07-17T10:26:01.748Z,30.90
2018-07-17T10:28:35.217Z,31.10
2018-07-17T10:31:08.792Z,31.00
2018-07-17T10:33:42.277Z,30.90
2018-07-17T10:36:15.676Z,30.90
2018-07-17T10:38:49.115Z,31.20
2018-07-17T10:41:22.551Z,31.40
2018-07-17T10:43:55.965Z,31.30
2018-07-17T10:46:29.498Z,31.20
2018-07-17T10:49:02.893Z,31.30
2018-07-17T10:51:36.361Z,31.30
2018-07-17T10:54:09.894Z,31.40
2018-07-17T10:56:43.345Z,31.40
2018-07-17T10:59:16.796Z,31.20
2018-07-17T11:01:50.238Z,31.40
2018-07-17T11:04:23.688Z,31.60
2018-07-17T11:06:57.123Z,31.60
2018-07-17T11:09:30.603Z,31.50
2018-07-17T11:14:37.133Z,31.00
2018-07-17T11:17:10.774Z,30.80
2018-07-17T11:19:44.254Z,30.90
2018-07-17T11:22:17.737Z,31.00
2018-07-17T11:24:51.185Z,30.90
2018-07-17T11:27:24.655Z,30.80
2018-07-17T11:29:58.081Z,31.00
2018-07-17T11:32:31.560Z,31.00
2018-07-17T11:35:05.669Z,31.10
2018-07-17T11:37:39.151Z,31.10
2018-07-17T11:40:12.622Z,30.60
2018-07-17T11:42:46.110Z,30.50
2018-07-17T11:45:19.544Z,30.70
2018-07-17T11:47:53.074Z,30.70
2018-07-17T11:50:26.494Z,30.80
2018-07-17T11:52:59.949Z,30.90
2018-07-17T11:55:33.359Z,30.90
2018-07-17T11:58:06.916Z,30.90
2018-07-17T12:00:40.373Z,30.80
2018-07-17T12:03:13.903Z,30.90
2018-07-17T12:05:47.427Z,31.00
2018-07-17T12:08:21.052Z,30.90
2018-07-17T12:10:54.556Z,31.00
2018-07-17T12:13:28.018Z,30.80
2018-07-17T12:16:01.513Z,30.80
2018-07-17T12:18:34.987Z,30.50
2018-07-17T12:21:08.408Z,30.50
2018-07-17T12:23:41.868Z,30.30
2018-07-17T12:26:15.345Z,30.20
2018-07-17T12:28:48.899Z,30.10
2018-07-17T12:31:22.376Z,30.20
2018-07-17T12:33:55.821Z,30.20
2018-07-17T12:36:29.275Z,30.30
2018-07-17T12:39:02.839Z,30.40
2018-07-17T12:41:36.337Z,30.60
2018-07-17T12:44:09.866Z,30.40
2018-07-17T12:46:43.301Z,30.40
2018-07-17T12:49:16.766Z,30.30
2018-07-17T12:51:50.234Z,30.30
2018-07-17T12:54:23.715Z,30.40
2018-07-17T12:56:57.239Z,30.40
2018-07-17T12:59:30.729Z,30.50
2018-07-17T13:02:04.240Z,30.70
2018-07-17T13:04:37.713Z,30.80
2018-07-17T13:07:11.340Z,30.80
2018-07-17T13:09:44.992Z,30.60
2018-07-17T13:12:18.464Z,30.60
2018-07-17T13:14:51.929Z,30.50
2018-07-17T13:17:25.487Z,30.50
2018-07-17T13:19:58.851Z,30.50
2018-07-17T13:22:32.320Z,30.40
2018-07-17T13:25:05.778Z,30.50
2018-07-17T13:27:39.241Z,30.50
2018-07-17T13:30:12.699Z,30.30
2018-07-17T13:32:46.200Z,30.20
2018-07-17T13:35:19.746Z,30.30
2018-07-17T13:37:53.235Z,30.40
2018-07-17T13:42:59.823Z,30.50
2018-07-17T13:45:33.318Z,30.40
2018-07-17T13:48:06.838Z,30.40
2018-07-17T13:50:40.614Z,30.40
2018-07-17T13:53:14.061Z,30.40
2018-07-17T13:55:47.540Z,30.00
2018-07-17T13:58:21.030Z,29.50
2018-07-17T14:00:54.548Z,29.20
2018-07-17T14:03:28.141Z,29.00
2018-07-17T14:06:01.706Z,28.90
2018-07-17T14:08:35.144Z,28.90
2018-07-17T14:11:08.660Z,29.00
2018-07-17T14:13:42.129Z,29.10
2018-07-17T14:16:15.594Z,29.40
2018-07-17T14:18:49.055Z,29.50
2018-07-17T14:21:22.530Z,29.30
2018-07-17T14:23:56.008Z,29.00
2018-07-17T14:26:29.482Z,28.70
2018-07-17T14:29:02.979Z,28.50
2018-07-17T14:31:36.493Z,28.40
2018-07-17T14:34:09.929Z,28.20
2018-07-17T14:39:16.541Z,28.30
2018-07-17T14:41:50.112Z,28.30
2018-07-17T14:44:23.914Z,28.30
2018-07-17T14:46:57.387Z,28.30
2018-07-17T14:49:30.826Z,28.10
2018-07-17T14:52:04.434Z,28.00
2018-07-17T14:54:37.938Z,27.90
2018-07-17T14:57:11.814Z,27.60
2018-07-17T14:59:45.329Z,27.50
2018-07-17T15:02:18.834Z,27.50
2018-07-17T15:04:52.343Z,27.50
2018-07-17T15:07:25.972Z,27.50
2018-07-17T15:09:59.497Z,27.50
2018-07-17T15:12:32.919Z,27.70
2018-07-17T15:15:06.932Z,27.70
2018-07-17T15:17:40.386Z,27.70
2018-07-17T15:20:13.868Z,27.70
2018-07-17T15:22:47.379Z,27.60
2018-07-17T15:25:20.905Z,27.70
2018-07-17T15:27:54.493Z,27.60
2018-07-17T15:30:27.859Z,27.70
2018-07-17T15:33:01.352Z,27.60
2018-07-17T15:35:34.866Z,27.70
2018-07-17T15:38:08.350Z,27.70
2018-07-17T15:40:41.864Z,27.80
2018-07-17T15:43:15.264Z,27.80
2018-07-17T15:45:48.800Z,27.80
2018-07-17T15:48:22.237Z,27.80
2018-07-17T15:50:55.714Z,27.70
2018-07-17T15:53:29.185Z,27.70
2018-07-17T15:56:02.705Z,27.60
2018-07-17T15:58:36.164Z,27.50
2018-07-17T16:01:09.711Z,27.50
2018-07-17T16:03:43.148Z,27.50
2018-07-17T16:06:16.733Z,27.40
2018-07-17T16:08:50.197Z,27.40
2018-07-17T16:11:23.698Z,27.40
2018-07-17T16:13:57.386Z,27.10
2018-07-17T16:16:31.614Z,26.80
2018-07-17T16:19:05.346Z,26.70
2018-07-17T16:21:38.798Z,26.70
2018-07-17T16:24:12.318Z,26.80
2018-07-17T16:26:45.835Z,26.80
2018-07-17T16:29:19.422Z,26.90
2018-07-17T16:31:52.988Z,26.90
2018-07-17T16:34:26.507Z,26.90
2018-07-17T16:37:00.063Z,26.90
2018-07-17T16:39:33.554Z,26.90
2018-07-17T16:42:07.067Z,26.80
2018-07-17T16:44:40.515Z,26.90
2018-07-17T16:47:13.950Z,26.90
2018-07-17T16:49:47.474Z,26.80
2018-07-17T16:52:20.976Z,26.70
2018-07-17T16:54:54.467Z,26.60
2018-07-17T16:57:28.012Z,26.50
2018-07-17T17:00:01.506Z,26.40
2018-07-17T17:02:34.980Z,26.40
2018-07-17T17:05:08.461Z,26.40
2018-07-17T17:07:41.944Z,26.40
2018-07-17T17:10:15.450Z,26.30
2018-07-17T17:12:48.994Z,26.30
2018-07-17T17:15:22.462Z,26.20
2018-07-17T17:17:55.926Z,26.20
2018-07-17T17:20:29.404Z,26.20
2018-07-17T17:23:02.847Z,26.10
2018-07-17T17:25:36.325Z,26.10
2018-07-17T17:28:09.761Z,26.00
2018-07-17T17:30:43.222Z,26.00
2018-07-17T17:33:16.651Z,25.90
2018-07-17T17:35:50.105Z,25.90
2018-07-17T17:38:23.551Z,25.80
2018-07-17T17:40:57.032Z,25.70
2018-07-17T17:43:30.503Z,25.70
2018-07-17T17:48:37.282Z,25.50
2018-07-17T17:51:10.826Z,25.50
2018-07-17T17:53:44.276Z,25.40
2018-07-17T17:56:17.792Z,25.30
2018-07-17T17:58:51.318Z,25.20
2018-07-17T18:01:24.825Z,25.10
2018-07-17T18:03:58.284Z,25.10
2018-07-17T18:06:31.895Z,25.00
2018-07-17T18:09:07.305Z,24.90
2018-07-17T18:11:40.825Z,24.80
2018-07-17T18:14:14.311Z,24.80
2018-07-17T18:16:47.802Z,24.70
2018-07-17T18:19:21.279Z,24.70
2018-07-17T18:21:54.776Z,24.60
2018-07-17T18:24:28.228Z,24.50
2018-07-17T18:27:01.773Z,24.40
2018-07-17T18:29:35.258Z,24.40
2018-07-17T18:32:08.966Z,24.30
2018-07-17T18:34:42.480Z,24.30
2018-07-17T18:37:16.307Z,24.30
2018-07-17T18:39:49.853Z,24.20
2018-07-17T18:42:23.305Z,24.10
2018-07-17T18:44:56.865Z,24.10
2018-07-17T18:47:30.316Z,24.00
2018-07-17T18:50:12.858Z,24.00
2018-07-17T18:52:37.480Z,23.90
2018-07-17T18:55:11.018Z,23.90
2018-07-17T18:57:44.610Z,23.80
2018-07-17T19:00:18.109Z,23.70
2018-07-17T19:02:51.658Z,23.60
2018-07-17T19:05:25.234Z,23.50
2018-07-17T19:07:58.857Z,23.40
2018-07-17T19:10:32.363Z,23.30
2018-07-17T19:13:06.031Z,23.20
2018-07-17T19:15:39.657Z,23.20
2018-07-17T19:18:13.155Z,23.10
2018-07-17T19:20:46.770Z,23.10
2018-07-17T19:23:20.377Z,22.90
2018-07-17T19:25:54.182Z,22.80
2018-07-17T19:28:27.687Z,22.80
2018-07-17T19:31:01.176Z,22.70
2018-07-17T19:33:34.764Z,22.60
2018-07-17T19:36:08.248Z,22.60
2018-07-17T19:38:41.788Z,22.60
2018-07-17T19:41:15.278Z,22.50
2018-07-17T19:43:49.378Z,22.50
2018-07-17T19:46:22.933Z,22.50
2018-07-17T19:48:56.480Z,22.50
2018-07-17T19:51:30.035Z,22.40
2018-07-17T19:54:03.659Z,22.50
2018-07-17T19:56:37.493Z,22.50
2018-07-17T19:59:10.997Z,22.40
2018-07-17T20:01:44.595Z,22.40
2018-07-17T20:04:18.172Z,22.40
2018-07-17T20:06:51.689Z,22.30
2018-07-17T20:09:25.270Z,22.20
2018-07-17T20:11:58.761Z,22.20
2018-07-17T20:14:32.269Z,22.10
2018-07-17T20:17:05.847Z,22.00
2018-07-17T20:19:39.413Z,22.00
2018-07-17T20:22:12.980Z,21.90
2018-07-17T20:24:46.564Z,21.90
2018-07-17T20:27:20.033Z,21.80
2018-07-17T20:29:53.516Z,21.80
2018-07-17T20:32:27.003Z,21.80
2018-07-17T20:35:00.522Z,21.70
2018-07-17T20:37:33.992Z,21.60
2018-07-17T20:40:07.511Z,21.50
2018-07-17T20:42:40.974Z,21.50
2018-07-17T20:45:14.482Z,21.40
2018-07-17T20:47:47.969Z,21.30
2018-07-17T20:50:21.514Z,21.30
2018-07-17T20:52:55.022Z,21.20
2018-07-17T20:55:28.817Z,21.20
2018-07-17T20:58:02.333Z,21.20
2018-07-17T21:00:35.810Z,21.10
2018-07-17T21:03:09.377Z,21.10
2018-07-17T21:05:42.872Z,21.00
2018-07-17T21:08:16.371Z,21.00
2018-07-17T21:10:56.521Z,20.90
2018-07-17T21:13:29.990Z,20.80
2018-07-17T21:16:03.449Z,20.60
2018-07-17T21:18:36.930Z,20.50
2018-07-17T21:21:10.424Z,20.50
2018-07-17T21:23:43.942Z,20.50
2018-07-17T21:26:17.410Z,20.40
2018-07-17T21:28:50.883Z,20.30
2018-07-17T21:31:24.404Z,20.30
2018-07-17T21:33:58.111Z,20.30
2018-07-17T21:36:31.534Z,20.10
2018-07-17T21:39:07.813Z,19.90
2018-07-17T21:41:41.289Z,19.90
2018-07-17T21:44:14.736Z,19.80
2018-07-17T21:46:48.181Z,19.80
2018-07-17T21:49:21.692Z,19.70
2018-07-17T21:51:55.135Z,19.70
2018-07-17T21:54:31.651Z,19.60
2018-07-17T21:57:05.403Z,19.50
2018-07-17T21:59:38.876Z,19.50
2018-07-17T22:02:12.325Z,19.50
2018-07-17T22:04:45.754Z,19.40
2018-07-17T22:07:19.253Z,19.40
2018-07-17T22:09:52.752Z,19.40
2018-07-17T22:12:26.202Z,19.30
2018-07-17T22:14:59.633Z,19.20
2018-07-17T22:17:33.069Z,19.20
2018-07-17T22:20:06.652Z,19.20
2018-07-17T22:22:40.161Z,19.10
2018-07-17T22:25:13.590Z,19.10
2018-07-17T22:27:47.070Z,19.00
2018-07-17T22:30:20.508Z,19.00
2018-07-17T22:32:53.962Z,19.00
2018-07-17T22:35:27.413Z,18.90
2018-07-17T22:38:00.889Z,18.90
2018-07-17T22:40:34.342Z,18.70
2018-07-17T22:43:07.816Z,18.70
2018-07-17T22:45:41.270Z,18.60
2018-07-17T22:48:14.776Z,18.60
2018-07-17T22:50:48.246Z,18.60
2018-07-17T22:53:21.711Z,18.60
2018-07-17T22:55:55.225Z,18.60
2018-07-17T22:58:28.675Z,18.50
2018-07-17T23:01:02.307Z,18.50
2018-07-17T23:03:35.715Z,18.40
2018-07-17T23:06:09.255Z,18.30
2018-07-17T23:08:42.686Z,18.20
2018-07-17T23:11:16.176Z,18.20
2018-07-17T23:13:49.626Z,18.10
2018-07-17T23:16:23.081Z,18.10
2018-07-17T23:18:56.558Z,18.10
2018-07-17T23:21:29.977Z,18.10
2018-07-17T23:24:03.457Z,18.10
2018-07-17T23:26:36.861Z,18.10
2018-07-17T23:29:10.324Z,18.00
2018-07-17T23:31:43.857Z,18.10
2018-07-17T23:34:17.268Z,18.00
2018-07-17T23:36:50.937Z,18.00
2018-07-17T23:39:24.356Z,18.10
2018-07-17T23:41:57.777Z,18.00
2018-07-17T23:44:31.231Z,18.00
2018-07-17T23:47:04.953Z,17.90
2018-07-17T23:49:38.980Z,17.80
2018-07-17T23:52:12.438Z,17.60
2018-07-17T23:54:45.876Z,17.60
2018-07-17T23:57:19.328Z,17.60
2018-07-17T23:59:52.789Z,17.60
